Terminal Aerodrome Forecast
Issued by NWS

Home | Current Version | Previous Version | Text Only | Print | Product List | Glossary Off
Versions: 1 2 3 4 5 6 7 8 9 10 11 12 13 14 15 16 17

860
FTUS43 KUNR 231343 AAA
TAFGCC
TAF AMD
KGCC 231343Z 2314/2412 04013KT P6SM OVC012
      TEMPO 2314/2316 2SM -SN BKN008
     FM231600 04017KT 1SM -SN OVC010
     FM240000 04013KT 2SM -SN OVC015
     FM240600 04008KT 5SM -SN OVC025=

USA.gov is the U.S. government's official web portal to all federal, state and local government web resources and services.